Santa Coloma de Farners, Spain
Current Conditions -  °F | °C
As of 11:34 PM on Sunday 21 Dec 2014 (Local Time) from LEGE Reporting Station
Haze Haze  
Wind Chill: 39°   Ceiling: Unl
Heat Index: 39°   Visibility: 2.5mi
Dew Point: 39°   Wind: 0mph
Humidity: 100%   Direction: NA
Pressure: 30.48"   Gusts: NA
Location:  41.87°N, 2.67°E
Report Text: LEGE 212234Z 00000KT 4000 BR SCT001 04/04 Q1032
Loading
Personal Weather Stations






























Interactive Weather Map New forecast layout! Learn more

10-Day Weather Forecast

Advertisements
Track Severe Weather on mobile